Time;durP1;ratioP1;P1;durP2;ratioP2;P2;SDS_P1;SDS_P2;PMS_P1;PMS_P2;Temp;Humidity;BMP_temperature;BMP_pressure;BME280_temperature;BME280_humidity;BME280_pressure;Samples;Min_cycle;Max_cycle;Signal;HPM_P1;HPM_P2
2021/09/14 00:01:13;;;;;;;28.95;18.63;;;;;;;12.95;100.00;101236.31;5065854;28;20068;-82
2021/09/14 00:03:39;;;;;;;34.83;18.77;;;;;;;12.94;100.00;101240.84;5062292;28;20440;-80
2021/09/14 00:06:05;;;;;;;26.73;17.88;;;;;;;12.97;100.00;101242.34;5032111;28;20032;-83
2021/09/14 00:08:30;;;;;;;26.02;18.17;;;;;;;12.92;100.00;101239.31;5033618;28;20068;-81
2021/09/14 00:10:55;;;;;;;28.38;18.60;;;;;;;12.91;100.00;101229.56;5049668;28;20052;-83
2021/09/14 00:13:21;;;;;;;31.15;18.48;;;;;;;12.85;100.00;101226.53;5068036;28;20055;-83
2021/09/14 00:15:46;;;;;;;30.98;18.45;;;;;;;12.86;100.00;101228.25;5064404;28;20056;-83
2021/09/14 00:18:12;;;;;;;33.42;19.42;;;;;;;12.83;100.00;101223.19;5053537;28;20036;-83
2021/09/14 00:20:37;;;;;;;31.75;18.48;;;;;;;12.80;100.00;101222.66;5064748;28;20144;-84
2021/09/14 00:23:03;;;;;;;29.20;18.13;;;;;;;12.77;100.00;101228.38;5057663;28;20049;-84
2021/09/14 00:25:30;;;;;;;28.10;18.05;;;;;;;12.76;100.00;101229.41;5063843;28;20463;-82
2021/09/14 00:27:55;;;;;;;29.85;19.13;;;;;;;12.74;100.00;101232.25;5064981;28;20222;-83
2021/09/14 00:30:21;;;;;;;31.70;19.08;;;;;;;12.72;100.00;101226.22;5046599;28;20070;-85
2021/09/14 00:32:46;;;;;;;28.20;18.90;;;;;;;12.68;100.00;101219.47;5062814;28;20044;-81
2021/09/14 00:35:13;;;;;;;28.23;18.92;;;;;;;12.68;100.00;101224.84;5061460;28;20109;-81
2021/09/14 00:37:40;;;;;;;25.85;17.88;;;;;;;12.65;100.00;101223.31;5060966;28;20117;-82
2021/09/14 00:40:07;;;;;;;30.17;19.13;;;;;;;12.64;100.00;101224.34;5063118;28;20358;-84
2021/09/14 00:42:34;;;;;;;32.30;19.90;;;;;;;12.62;100.00;101215.59;5044556;28;20100;-82
2021/09/14 00:45:02;;;;;;;28.70;19.50;;;;;;;12.62;100.00;101220.13;5042076;28;20057;-83
2021/09/14 00:47:28;;;;;;;27.02;18.48;;;;;;;12.64;100.00;101223.50;5048697;28;20074;-84
2021/09/14 00:49:53;;;;;;;31.40;19.50;;;;;;;12.61;100.00;101215.78;5048001;28;20060;-81
2021/09/14 00:52:19;;;;;;;31.15;20.58;;;;;;;12.64;100.00;101210.06;5068660;28;20052;-81
2021/09/14 00:54:45;;;;;;;31.45;19.15;;;;;;;12.59;100.00;101207.00;5066464;28;20049;-81
2021/09/14 00:57:10;;;;;;;32.83;21.30;;;;;;;12.54;100.00;101212.03;5047705;28;20552;-85
2021/09/14 00:59:36;;;;;;;31.98;20.27;;;;;;;12.52;100.00;101200.63;5058560;28;20561;-85
2021/09/14 01:02:02;;;;;;;33.50;20.38;;;;;;;12.51;100.00;101204.31;5043917;28;20049;-85
2021/09/14 01:04:30;;;;;;;31.63;20.17;;;;;;;12.50;100.00;101205.31;5061508;28;20050;-83
2021/09/14 01:06:56;;;;;;;35.83;20.17;;;;;;;12.50;100.00;101218.78;5067144;28;20775;-83
2021/09/14 01:09:23;;;;;;;30.52;19.23;;;;;;;12.49;100.00;101219.81;5053228;28;20061;-84
2021/09/14 01:11:50;;;;;;;32.40;21.15;;;;;;;12.47;100.00;101217.28;5047133;28;20148;-84
2021/09/14 01:14:15;;;;;;;32.03;20.27;;;;;;;12.45;100.00;101213.06;5064075;28;20041;-80
2021/09/14 01:16:41;;;;;;;32.80;21.10;;;;;;;12.49;100.00;101214.41;5045358;28;20171;-82
2021/09/14 01:19:09;;;;;;;31.42;20.88;;;;;;;12.44;100.00;101217.59;5068063;28;20059;-84
2021/09/14 01:21:35;;;;;;;32.28;20.27;;;;;;;12.42;100.00;101212.38;5047307;28;20033;-82
2021/09/14 01:24:01;;;;;;;30.02;19.75;;;;;;;12.36;100.00;101210.34;5060328;28;20037;-82
2021/09/14 01:26:29;;;;;;;30.27;19.05;;;;;;;12.32;100.00;101211.69;5028887;28;20036;-79
2021/09/14 01:28:55;;;;;;;34.77;20.87;;;;;;;12.31;100.00;101207.31;5046407;28;20056;-79
2021/09/14 01:31:22;;;;;;;36.17;21.63;;;;;;;12.31;100.00;101206.47;5030616;28;20045;-81
2021/09/14 01:33:51;;;;;;;32.88;20.90;;;;;;;12.29;100.00;101209.34;5070073;28;20051;-81
2021/09/14 01:36:18;;;;;;;27.88;19.35;;;;;;;12.29;100.00;101205.81;5064070;28;20056;-80
2021/09/14 01:38:44;;;;;;;34.53;21.02;;;;;;;12.26;100.00;101206.97;5052269;28;20040;-82
2021/09/14 01:41:09;;;;;;;34.17;20.52;;;;;;;12.23;100.00;101204.63;5067189;28;20081;-80
2021/09/14 01:43:37;;;;;;;31.13;19.45;;;;;;;12.22;100.00;101205.59;5058620;28;20060;-80
2021/09/14 01:46:04;;;;;;;32.80;20.40;;;;;;;12.19;100.00;101200.56;5061028;28;20049;-82
2021/09/14 01:48:29;;;;;;;32.80;20.42;;;;;;;12.15;100.00;101200.06;5067634;28;20048;-80
2021/09/14 01:50:56;;;;;;;34.58;19.90;;;;;;;12.12;100.00;101203.06;5061496;28;20606;-80
2021/09/14 01:53:26;;;;;;;36.10;20.35;;;;;;;12.10;100.00;101198.88;5044685;28;20044;-80
2021/09/14 01:55:57;;;;;;;31.30;19.83;;;;;;;12.08;100.00;101195.50;5047583;28;20420;-82
2021/09/14 01:58:23;;;;;;;35.90;21.65;;;;;;;12.08;100.00;101196.31;5052459;28;20048;-82
2021/09/14 02:03:50;;;;;;;36.08;20.80;;;;;;;12.03;100.00;101200.53;5046037;28;20503;-82
2021/09/14 02:07:00;;;;;;;35.92;21.73;;;;;;;12.00;100.00;101190.94;5033108;28;20075;-83
2021/09/14 02:44:42;;;;;;;41.08;23.40;;;;;;;11.83;100.00;101183.81;5058555;28;20071;-82
2021/09/14 03:00:44;;;;;;;42.63;23.20;;;;;;;11.67;100.00;101168.44;5047477;28;20083;-80
2021/09/14 03:03:10;;;;;;;38.95;23.27;;;;;;;11.68;100.00;101164.72;5063411;28;20044;-81
2021/09/14 03:05:35;;;;;;;41.65;24.48;;;;;;;11.66;100.00;101167.59;5048713;28;20032;-81
2021/09/14 03:08:01;;;;;;;43.03;24.50;;;;;;;11.68;100.00;101170.13;5038637;28;20126;-80
2021/09/14 03:10:26;;;;;;;41.90;23.92;;;;;;;11.70;100.00;101165.41;5067175;28;20041;-80
2021/09/14 03:12:52;;;;;;;38.47;24.33;;;;;;;11.69;100.00;101163.75;5056056;28;20056;-81
2021/09/14 03:15:19;;;;;;;44.15;24.80;;;;;;;11.70;100.00;101157.34;5060666;28;20458;-82
2021/09/14 03:17:44;;;;;;;42.50;26.40;;;;;;;11.65;100.00;101151.63;5062348;28;20056;-81
2021/09/14 03:20:10;;;;;;;48.67;26.38;;;;;;;11.68;100.00;101156.66;5044810;28;20052;-80
2021/09/14 03:22:36;;;;;;;44.40;26.08;;;;;;;11.70;100.00;101157.34;5061115;28;20044;-81
2021/09/14 03:25:04;;;;;;;45.33;24.98;;;;;;;11.66;100.00;101158.69;5046377;28;20029;-81
2021/09/14 03:27:30;;;;;;;43.42;25.55;;;;;;;11.65;100.00;101155.19;5043401;28;20048;-83
2021/09/14 03:29:57;;;;;;;45.33;24.38;;;;;;;11.66;100.00;101151.47;5050722;28;20497;-82
2021/09/14 03:32:22;;;;;;;46.85;26.50;;;;;;;11.67;100.00;101155.00;5073987;28;20055;-82
2021/09/14 03:34:49;;;;;;;46.85;25.67;;;;;;;11.65;100.00;101154.31;5033215;28;20131;-83
2021/09/14 03:37:15;;;;;;;44.03;25.25;;;;;;;11.62;100.00;101149.25;5053284;28;20040;-81
2021/09/14 03:39:42;;;;;;;43.53;25.90;;;;;;;11.64;100.00;101147.25;5049366;28;20033;-82
2021/09/14 03:42:09;;;;;;;45.80;26.88;;;;;;;11.62;100.00;101142.03;5050676;28;20044;-83
2021/09/14 03:44:36;;;;;;;45.95;26.30;;;;;;;11.61;100.00;101145.72;5031864;28;20040;-83
2021/09/14 03:47:02;;;;;;;43.33;26.35;;;;;;;11.60;100.00;101144.06;5034197;28;20761;-83
2021/09/14 03:49:30;;;;;;;48.55;26.40;;;;;;;11.60;100.00;101148.59;5044072;28;20060;-83
2021/09/14 03:51:56;;;;;;;48.78;28.00;;;;;;;11.61;100.00;101147.59;5059451;28;20123;-80
2021/09/14 03:54:21;;;;;;;46.65;27.48;;;;;;;11.55;100.00;101146.38;5072950;28;20131;-82
2021/09/14 03:56:47;;;;;;;47.90;28.48;;;;;;;11.55;100.00;101142.88;5038697;28;20045;-82
2021/09/14 03:59:12;;;;;;;51.78;26.63;;;;;;;11.56;100.00;101147.22;5050128;28;20044;-82
2021/09/14 04:01:40;;;;;;;43.22;27.00;;;;;;;11.56;100.00;101137.31;5050391;28;20036;-82
2021/09/14 04:04:20;;;;;;;46.30;26.88;;;;;;;11.57;100.00;101138.19;5043800;28;20128;-82
2021/09/14 04:06:56;;;;;;;47.92;27.30;;;;;;;11.55;100.00;101130.25;5033908;28;20037;-82
2021/09/14 04:09:22;;;;;;;44.83;26.67;;;;;;;11.55;100.00;101132.13;5050952;28;20040;-81
2021/09/14 04:11:50;;;;;;;48.17;28.27;;;;;;;11.57;100.00;101128.25;5061984;28;20039;-83
2021/09/14 04:14:16;;;;;;;46.53;27.13;;;;;;;11.56;100.00;101136.47;5061748;28;20116;-84
2021/09/14 04:16:42;;;;;;;45.00;27.10;;;;;;;11.52;100.00;101123.38;5054917;28;20443;-83
2021/09/14 04:19:09;;;;;;;45.63;28.08;;;;;;;11.52;100.00;101119.84;5066439;28;20370;-81
2021/09/14 04:21:34;;;;;;;45.03;28.50;;;;;;;11.53;100.00;101114.28;5031391;28;20074;-82
2021/09/14 04:24:01;;;;;;;48.40;26.60;;;;;;;11.51;100.00;101116.31;5065855;28;20447;-80
2021/09/14 04:26:26;;;;;;;42.30;25.70;;;;;;;11.51;100.00;101124.38;5061789;28;20435;-81
2021/09/14 04:28:51;;;;;;;47.83;27.77;;;;;;;11.53;100.00;101116.97;5036171;28;20052;-81
2021/09/14 04:31:17;;;;;;;47.95;27.92;;;;;;;11.51;100.00;101116.31;5059945;28;20045;-82
2021/09/14 04:33:42;;;;;;;48.63;28.40;;;;;;;11.46;100.00;101121.31;5023922;28;20557;-82
2021/09/14 04:36:08;;;;;;;46.83;26.60;;;;;;;11.45;100.00;101124.16;5060396;28;20044;-85
2021/09/14 04:38:34;;;;;;;42.63;27.10;;;;;;;11.41;100.00;101120.97;5028234;28;20049;-85
2021/09/14 04:40:59;;;;;;;51.13;26.30;;;;;;;11.43;100.00;101121.66;5037586;28;20040;-81
2021/09/14 04:43:24;;;;;;;44.92;26.70;;;;;;;11.45;100.00;101118.78;5042023;28;20547;-83
2021/09/14 04:45:50;;;;;;;47.83;28.00;;;;;;;11.44;100.00;101117.94;5038548;28;20045;-83
2021/09/14 04:48:15;;;;;;;49.10;26.77;;;;;;;11.42;100.00;101108.38;5059752;28;20063;-82
2021/09/14 04:50:41;;;;;;;53.03;27.35;;;;;;;11.37;100.00;101100.81;5064626;28;20388;-82
2021/09/14 04:53:06;;;;;;;47.53;27.77;;;;;;;11.38;100.00;101096.28;5054977;28;20044;-83
2021/09/14 04:55:32;;;;;;;48.28;26.88;;;;;;;11.37;100.00;101103.50;5060489;28;20357;-80
2021/09/14 04:57:57;;;;;;;46.15;26.33;;;;;;;11.34;100.00;101103.81;5038209;28;20927;-83
2021/09/14 05:00:22;;;;;;;48.83;26.83;;;;;;;11.35;100.00;101097.44;5050167;28;20056;-84
2021/09/14 05:02:48;;;;;;;48.35;26.42;;;;;;;11.34;100.00;101093.06;5043954;28;20116;-83
2021/09/14 05:05:13;;;;;;;47.50;27.15;;;;;;;11.34;100.00;101093.06;5040810;28;20045;-83
2021/09/14 05:07:39;;;;;;;44.90;26.67;;;;;;;11.35;100.00;101075.94;5056839;28;20334;-80
2021/09/14 05:10:05;;;;;;;44.92;26.05;;;;;;;11.35;100.00;101084.00;5061043;28;20052;-83
2021/09/14 05:12:30;;;;;;;49.30;27.70;;;;;;;11.32;100.00;101087.00;5044259;28;20392;-82
2021/09/14 05:14:55;;;;;;;47.78;26.90;;;;;;;11.32;100.00;101087.00;5044668;28;20047;-83
2021/09/14 05:17:21;;;;;;;47.72;27.92;;;;;;;11.36;100.00;101082.97;5044110;28;20101;-82
2021/09/14 05:19:48;;;;;;;52.80;27.38;;;;;;;11.33;100.00;101086.00;5029705;28;20142;-83
2021/09/14 05:22:15;;;;;;;45.80;28.10;;;;;;;11.35;100.00;101075.09;5055984;28;20044;-81
2021/09/14 05:24:40;;;;;;;48.50;27.45;;;;;;;11.35;100.00;101078.63;5051263;28;20032;-81
2021/09/14 05:27:06;;;;;;;46.97;26.40;;;;;;;11.31;100.00;101069.22;5066420;28;20063;-86
2021/09/14 05:29:31;;;;;;;49.63;27.98;;;;;;;11.33;100.00;101072.56;5066172;28;20036;-83
2021/09/14 05:31:57;;;;;;;49.80;29.52;;;;;;;11.36;100.00;101074.91;5065536;28;20044;-80
2021/09/14 05:34:23;;;;;;;46.78;28.00;;;;;;;11.39;100.00;101077.28;5034794;28;20037;-83
2021/09/14 05:36:49;;;;;;;49.65;27.63;;;;;;;11.38;100.00;101075.59;5056029;28;20068;-81
2021/09/14 05:39:15;;;;;;;46.55;26.10;;;;;;;11.38;100.00;101075.59;5048843;28;20041;-82
2021/09/14 05:41:40;;;;;;;49.05;26.45;;;;;;;11.38;100.00;101080.97;5065797;28;20043;-81
2021/09/14 05:44:06;;;;;;;46.17;27.00;;;;;;;11.38;100.00;101077.47;5064409;28;20107;-82
2021/09/14 05:46:31;;;;;;;49.70;27.80;;;;;;;11.40;100.00;101076.28;5060473;28;20393;-82
2021/09/14 05:48:57;;;;;;;52.65;28.25;;;;;;;11.44;100.00;101074.94;5027342;28;20123;-83
2021/09/14 05:51:22;;;;;;;52.08;28.88;;;;;;;11.46;100.00;101070.25;5030275;28;20043;-81
2021/09/14 05:53:48;;;;;;;50.60;26.65;;;;;;;11.45;100.00;101073.09;5064990;28;20060;-84
2021/09/14 05:56:13;;;;;;;56.47;27.10;;;;;;;11.44;100.00;101077.63;5062752;28;20048;-81
2021/09/14 05:58:39;;;;;;;54.55;27.17;;;;;;;11.48;100.00;101086.25;5029145;28;20425;-84
2021/09/14 06:01:04;;;;;;;48.90;27.13;;;;;;;11.51;100.00;101080.53;5028143;28;20071;-82
2021/09/14 06:03:32;;;;;;;50.20;26.33;;;;;;;11.51;100.00;101077.84;5028247;28;20056;-83
2021/09/14 06:05:58;;;;;;;50.17;27.85;;;;;;;11.53;100.00;101082.03;5058483;28;20097;-82
2021/09/14 06:08:23;;;;;;;50.70;26.33;;;;;;;11.58;100.00;101084.25;5046773;28;20033;-83
2021/09/14 06:10:49;;;;;;;49.92;27.13;;;;;;;11.63;100.00;101086.44;5038116;28;20245;-83
2021/09/14 06:13:14;;;;;;;47.33;26.73;;;;;;;11.66;100.00;101083.44;5060231;28;20471;-81
2021/09/14 06:15:40;;;;;;;50.80;26.52;;;;;;;11.69;100.00;101091.16;5057750;28;20447;-85
2021/09/14 06:18:06;;;;;;;46.70;26.88;;;;;;;11.73;100.00;101095.19;5027017;28;20037;-83
2021/09/14 06:20:32;;;;;;;50.63;26.80;;;;;;;11.77;100.00;101095.69;5027108;28;20040;-84
2021/09/14 06:22:58;;;;;;;44.25;27.08;;;;;;;11.81;100.00;101092.53;5045124;28;20670;-84
2021/09/14 06:25:23;;;;;;;48.85;26.77;;;;;;;11.85;100.00;101099.28;5045584;28;20109;-83
2021/09/14 06:27:48;;;;;;;50.08;26.85;;;;;;;11.86;100.00;101111.75;5052734;28;20510;-82
2021/09/14 06:30:14;;;;;;;45.97;26.75;;;;;;;11.93;100.00;101106.53;5053569;28;20040;-85
2021/09/14 06:32:39;;;;;;;50.03;27.38;;;;;;;11.99;100.00;101094.28;5059503;28;20044;-87
2021/09/14 06:35:05;;;;;;;47.42;26.20;;;;;;;12.05;100.00;101097.13;5052096;28;20053;-85
2021/09/14 06:37:31;;;;;;;45.42;27.83;;;;;;;12.12;100.00;101094.63;5050777;28;20496;-83
2021/09/14 06:39:57;;;;;;;45.80;27.65;;;;;;;12.19;100.00;101101.84;5047508;28;20397;-84
2021/09/14 06:42:24;;;;;;;47.03;27.67;;;;;;;12.24;100.00;101097.84;5049286;28;20048;-83
2021/09/14 06:44:49;;;;;;;44.65;26.65;;;;;;;12.31;100.00;101098.81;5034723;28;20130;-85
2021/09/14 06:47:15;;;;;;;43.55;28.27;;;;;;;12.37;100.00;101101.72;5032690;28;20147;-85
2021/09/14 06:49:40;;;;;;;48.20;27.50;;;;;;;12.47;100.00;101103.38;5027999;28;20389;-83
2021/09/14 06:52:06;;;;;;;45.85;25.90;;;;;;;12.50;100.00;101103.03;5036782;28;20109;-82
2021/09/14 06:54:31;;;;;;;43.88;26.02;;;;;;;12.56;100.00;101108.56;5047673;28;20036;-83
2021/09/14 06:56:56;;;;;;;39.88;26.52;;;;;;;12.63;100.00;101098.00;5045773;28;20039;-83
2021/09/14 06:59:22;;;;;;;40.65;24.38;;;;;;;12.72;100.00;101105.03;5044377;28;20052;-83
2021/09/14 07:01:47;;;;;;;46.42;27.98;;;;;;;12.81;100.00;101095.94;5016448;28;20033;-85
2021/09/14 07:04:14;;;;;;;43.90;25.23;;;;;;;12.92;100.00;101099.25;5045260;28;20140;-84
2021/09/14 07:06:40;;;;;;;40.83;25.30;;;;;;;13.02;100.00;101097.22;5058434;28;20051;-84
2021/09/14 07:09:06;;;;;;;38.95;24.02;;;;;;;13.09;100.00;101099.06;5056826;28;20036;-83
2021/09/14 07:11:32;;;;;;;38.67;23.77;;;;;;;13.17;100.00;101098.19;5041910;28;20118;-84
2021/09/14 07:13:58;;;;;;;35.78;23.77;;;;;;;13.27;100.00;101098.84;5020849;28;20083;-86
2021/09/14 07:16:25;;;;;;;38.08;24.75;;;;;;;13.39;100.00;101091.22;5062189;28;20045;-83
2021/09/14 07:18:50;;;;;;;38.55;23.50;;;;;;;13.49;100.00;101080.22;5026550;28;20072;-85
2021/09/14 07:21:16;;;;;;;35.85;22.38;;;;;;;13.56;100.00;101083.91;5058762;28;20110;-84
2021/09/14 07:23:42;;;;;;;34.20;21.88;;;;;;;13.64;100.00;101070.38;5047256;28;20036;-82
2021/09/14 07:26:07;;;;;;;31.23;20.77;;;;;;;13.75;100.00;101072.69;5064720;28;20072;-84
2021/09/14 07:28:33;;;;;;;31.15;20.83;;;;;;;13.85;100.00;101067.03;5042002;28;20129;-83
2021/09/14 07:30:58;;;;;;;27.63;20.33;;;;;;;13.92;100.00;101072.53;5036946;28;20036;-83
2021/09/14 07:33:24;;;;;;;28.02;19.77;;;;;;;13.97;100.00;101070.16;5048201;28;20044;-85
2021/09/14 07:35:49;;;;;;;30.33;19.88;;;;;;;14.03;100.00;101072.13;5056335;28;20048;-83
2021/09/14 07:38:14;;;;;;;29.20;20.45;;;;;;;14.09;100.00;101066.00;5058693;28;20048;-82
2021/09/14 07:40:40;;;;;;;28.85;20.42;;;;;;;14.16;100.00;101064.28;5060554;28;20045;-82
2021/09/14 07:43:05;;;;;;;27.95;19.13;;;;;;;14.22;100.00;101066.25;5042796;28;20045;-82
2021/09/14 07:45:31;;;;;;;29.77;20.33;;;;;;;14.29;100.00;101062.81;5054974;28;20049;-82
2021/09/14 07:47:57;;;;;;;27.48;19.73;;;;;;;14.35;100.00;101071.03;5061202;28;20492;-84
2021/09/14 07:50:23;;;;;;;26.70;18.88;;;;;;;14.43;100.00;101062.03;5042290;28;20142;-82
2021/09/14 07:52:50;;;;;;;28.75;19.70;;;;;;;14.48;100.00;101067.72;5057617;28;20558;-84
2021/09/14 07:55:16;;;;;;;26.48;18.92;;;;;;;14.60;100.00;101068.97;5040513;28;20084;-83
2021/09/14 07:57:41;;;;;;;27.35;18.23;;;;;;;14.67;100.00;101066.38;5042770;28;20047;-85
2021/09/14 08:00:08;;;;;;;25.77;18.73;;;;;;;14.75;100.00;101062.75;5055560;28;20371;-83
2021/09/14 08:02:33;;;;;;;23.13;18.55;;;;;;;14.86;100.00;101065.00;5061144;28;20092;-82
2021/09/14 08:04:59;;;;;;;26.52;17.67;;;;;;;14.94;100.00;101069.47;5018063;28;20532;-81
2021/09/14 08:07:24;;;;;;;22.95;18.10;;;;;;;15.00;100.00;101057.91;5058540;28;20054;-84
2021/09/14 08:09:49;;;;;;;21.95;16.40;;;;;;;15.06;100.00;101054.47;5026706;28;20036;-84
2021/09/14 08:12:15;;;;;;;25.60;18.13;;;;;;;15.12;100.00;101051.84;5040246;28;20064;-82
2021/09/14 08:14:40;;;;;;;23.27;17.10;;;;;;;15.20;100.00;101052.78;5062032;28;20040;-82
2021/09/14 08:17:06;;;;;;;23.73;16.80;;;;;;;15.28;100.00;101047.28;5046152;28;20045;-85
2021/09/14 08:19:31;;;;;;;23.50;16.55;;;;;;;15.32;100.00;101045.84;5044563;28;20044;-84
2021/09/14 08:21:58;;;;;;;23.10;17.52;;;;;;;15.38;100.00;101047.81;5041351;28;20037;-82
2021/09/14 08:24:24;;;;;;;20.98;16.40;;;;;;;15.45;100.00;101055.97;5062647;28;20063;-83
2021/09/14 08:26:50;;;;;;;24.40;16.90;;;;;;;15.52;100.00;101055.03;5059838;28;20516;-82
2021/09/14 08:29:16;;;;;;;22.40;16.08;;;;;;;15.57;100.00;101058.03;5065625;28;20045;-82
2021/09/14 08:31:41;;;;;;;24.30;15.85;;;;;;;15.67;100.00;101056.88;5043615;28;20067;-82
2021/09/14 08:34:07;;;;;;;22.65;15.63;;;;;;;15.75;100.00;101054.91;5038676;28;20044;-82
2021/09/14 08:36:32;;;;;;;22.00;15.88;;;;;;;15.84;100.00;101058.34;5042451;28;20531;-84
2021/09/14 08:38:58;;;;;;;19.80;13.98;;;;;;;15.93;100.00;101056.34;5044144;28;20052;-84
2021/09/14 08:41:24;;;;;;;19.30;14.38;;;;;;;16.07;100.00;101051.91;5044418;28;20460;-84
2021/09/14 08:43:51;;;;;;;20.75;15.27;;;;;;;16.19;99.74;101050.34;5062140;28;21688;-84
2021/09/14 08:46:20;;;;;;;17.98;14.02;;;;;;;16.27;97.76;101057.50;5041838;28;20211;-85
2021/09/14 08:48:46;;;;;;;18.13;13.85;;;;;;;16.36;98.36;101062.56;5061884;28;20634;-83
2021/09/14 08:51:13;;;;;;;18.52;14.35;;;;;;;16.42;99.38;101067.19;5043965;28;20043;-85
2021/09/14 08:53:38;;;;;;;17.15;13.32;;;;;;;16.43;97.90;101062.66;5044265;28;20182;-83
2021/09/14 08:56:06;;;;;;;19.17;13.95;;;;;;;16.50;97.58;101065.41;5045091;28;20135;-83
2021/09/14 08:58:32;;;;;;;18.58;13.40;;;;;;;16.51;96.80;101075.19;5041189;28;20052;-84
2021/09/14 09:00:57;;;;;;;16.15;12.45;;;;;;;16.56;96.96;101078.97;5044207;28;20514;-86
2021/09/14 09:03:27;;;;;;;18.40;13.68;;;;;;;16.65;97.59;101071.53;5061475;28;20055;-85
2021/09/14 09:05:53;;;;;;;15.02;12.52;;;;;;;16.75;96.70;101073.91;5061955;28;20048;-83
2021/09/14 09:08:21;;;;;;;18.35;13.32;;;;;;;16.78;97.00;101066.25;5041611;28;20399;-81
2021/09/14 09:11:07;;;;;;;16.95;13.25;;;;;;;16.85;96.51;101075.25;5024618;28;20113;-83
2021/09/14 09:13:54;;;;;;;16.58;12.63;;;;;;;16.95;97.83;101071.38;5059167;28;20047;-82
2021/09/14 09:16:25;;;;;;;17.05;12.45;;;;;;;16.97;95.60;101075.53;5039008;28;20131;-85
2021/09/14 09:18:59;;;;;;;17.85;13.00;;;;;;;17.08;96.78;101076.84;5044119;28;20496;-81
2021/09/14 09:21:33;;;;;;;14.32;12.80;;;;;;;17.15;94.94;101064.19;5065639;28;20032;-83
2021/09/14 09:24:08;;;;;;;16.48;12.30;;;;;;;17.30;95.82;101059.44;5041137;28;20777;-85
2021/09/14 09:26:42;;;;;;;16.05;13.02;;;;;;;17.40;94.95;101063.66;5028448;28;20036;-81
2021/09/14 09:29:10;;;;;;;17.85;12.45;;;;;;;17.51;95.12;101071.22;5061641;28;20112;-86
2021/09/14 09:31:37;;;;;;;14.77;11.93;;;;;;;17.62;93.00;101062.50;5065318;28;20044;-83
2021/09/14 09:34:07;;;;;;;14.90;11.35;;;;;;;17.73;92.99;101059.19;5042495;28;20134;-84
2021/09/14 09:36:40;;;;;;;15.00;11.45;;;;;;;17.89;93.24;101059.88;5042584;28;20047;-83
2021/09/14 09:39:08;;;;;;;15.32;11.85;;;;;;;18.07;92.24;101051.09;5042024;28;20044;-84
2021/09/14 09:41:38;;;;;;;15.00;11.68;;;;;;;18.23;90.77;101056.16;5042173;28;20084;-81
2021/09/14 09:44:09;;;;;;;14.93;11.65;;;;;;;18.26;87.84;101058.44;5061916;28;20184;-84
2021/09/14 09:46:35;;;;;;;14.25;11.40;;;;;;;18.36;89.05;101058.03;5059696;28;20073;-85
2021/09/14 09:49:05;;;;;;;15.45;11.85;;;;;;;18.54;88.53;101054.69;5063584;28;20497;-84
2021/09/14 09:51:31;;;;;;;14.00;10.63;;;;;;;18.65;87.34;101046.72;5060885;28;20082;-82
2021/09/14 09:53:57;;;;;;;13.20;11.00;;;;;;;18.74;86.87;101041.94;5040818;28;20084;-82
2021/09/14 09:56:23;;;;;;;13.38;9.77;;;;;;;18.82;87.62;101032.72;5044234;28;20465;-85
2021/09/14 09:58:50;;;;;;;16.05;10.77;;;;;;;19.05;87.77;101035.78;5061986;28;20055;-84
2021/09/14 10:01:22;;;;;;;11.63;9.57;;;;;;;19.18;86.01;101045.78;5040052;28;20396;-85
2021/09/14 10:04:03;;;;;;;12.15;10.10;;;;;;;19.27;85.65;101049.09;5056067;28;20489;-83
2021/09/14 10:06:41;;;;;;;14.15;10.48;;;;;;;19.34;84.74;101048.03;5042175;28;20056;-85
2021/09/14 10:09:07;;;;;;;12.33;10.33;;;;;;;19.54;85.25;101052.56;5062102;28;20036;-85
2021/09/14 10:11:35;;;;;;;12.77;9.77;;;;;;;19.65;83.31;101051.91;5059430;28;20511;-81
2021/09/14 10:14:12;;;;;;;11.43;9.32;;;;;;;19.77;82.40;101049.31;5043580;28;20484;-83
2021/09/14 10:16:44;;;;;;;12.80;9.10;;;;;;;19.86;82.22;101049.88;5061358;28;20048;-82
2021/09/14 10:19:31;;;;;;;12.65;10.02;;;;;;;19.98;83.02;101045.41;5059015;28;20048;-84
2021/09/14 10:22:02;;;;;;;12.45;9.95;;;;;;;20.12;80.87;101040.69;5060461;28;20036;-82
2021/09/14 10:24:29;;;;;;;12.30;9.60;;;;;;;20.18;80.95;101040.63;5060505;28;20056;-85
2021/09/14 10:27:07;;;;;;;11.73;9.07;;;;;;;20.28;81.46;101023.78;5058977;28;20055;-85
2021/09/14 10:29:34;;;;;;;12.05;9.80;;;;;;;20.36;80.48;101023.50;5043598;28;20035;-85
2021/09/14 10:32:05;;;;;;;10.77;9.05;;;;;;;20.44;79.67;101017.75;5055900;28;20040;-85
2021/09/14 10:34:32;;;;;;;14.38;9.88;;;;;;;20.37;80.45;101016.16;5040547;28;20040;-84
2021/09/14 10:37:00;;;;;;;14.10;9.70;;;;;;;20.54;82.32;101021.91;5052228;28;20052;-82
2021/09/14 10:39:27;;;;;;;11.00;9.25;;;;;;;20.73;80.25;101009.97;5062301;28;20047;-83
2021/09/14 10:41:52;;;;;;;11.75;9.95;;;;;;;20.82;77.49;101016.78;5061786;28;20046;-84
2021/09/14 10:44:25;;;;;;;11.77;9.52;;;;;;;20.88;77.79;101015.03;5028084;28;20041;-85
2021/09/14 10:47:07;;;;;;;12.05;9.65;;;;;;;20.96;78.65;101015.56;5060291;28;20044;-82
2021/09/14 10:49:43;;;;;;;12.30;9.77;;;;;;;21.01;79.18;101014.91;5029107;28;20064;-85
2021/09/14 10:52:09;;;;;;;12.13;9.88;;;;;;;21.23;79.09;101012.50;5060063;28;20044;-84
2021/09/14 10:54:49;;;;;;;10.15;8.90;;;;;;;21.38;77.29;101007.53;5038109;28;20066;-84
2021/09/14 10:57:16;;;;;;;14.05;9.63;;;;;;;21.44;76.83;101018.59;5051432;28;20049;-85
2021/09/14 10:59:52;;;;;;;10.32;8.93;;;;;;;21.49;75.81;101002.34;5030840;28;20044;-83
2021/09/14 11:02:24;;;;;;;10.27;8.52;;;;;;;21.56;76.46;101003.09;5040233;28;20054;-83
2021/09/14 11:04:49;;;;;;;12.48;9.25;;;;;;;21.62;75.54;100999.44;5062516;28;20048;-84
2021/09/14 11:07:17;;;;;;;12.07;9.90;;;;;;;21.47;74.31;100994.41;5056444;28;20108;-82
2021/09/14 11:09:43;;;;;;;11.70;9.52;;;;;;;21.64;75.06;100989.13;5059080;28;20044;-85
2021/09/14 11:12:18;;;;;;;10.50;9.02;;;;;;;21.75;74.25;100988.31;5040863;28;20044;-84
2021/09/14 11:14:43;;;;;;;10.20;8.10;;;;;;;21.82;75.56;100978.09;5058075;28;20311;-84
2021/09/14 11:17:09;;;;;;;10.93;7.78;;;;;;;21.89;73.69;100985.34;5057183;28;20439;-86
2021/09/14 11:19:34;;;;;;;10.77;8.95;;;;;;;21.92;72.46;100985.72;5025204;28;20045;-85
2021/09/14 11:21:59;;;;;;;13.55;9.90;;;;;;;21.86;72.50;100983.94;5062565;28;20032;-85
2021/09/14 11:24:25;;;;;;;11.68;8.43;;;;;;;21.93;74.98;100983.84;5041600;28;20485;-85
2021/09/14 11:26:51;;;;;;;10.40;8.38;;;;;;;22.08;74.29;100974.09;5053039;28;20049;-84
2021/09/14 11:29:17;;;;;;;10.77;8.98;;;;;;;22.13;72.79;100980.78;5045827;28;20254;-84
2021/09/14 11:31:42;;;;;;;10.98;8.13;;;;;;;22.23;73.20;100986.50;5059215;28;20041;-85
2021/09/14 11:34:08;;;;;;;9.55;8.18;;;;;;;22.33;72.13;100981.28;5062103;28;20442;-86
2021/09/14 11:36:34;;;;;;;9.77;7.80;;;;;;;22.38;72.38;100972.38;5052671;28;20045;-87
2021/09/14 11:39:03;;;;;;;10.75;6.57;;;;;;;22.49;72.37;100966.06;5056395;28;20044;-85
2021/09/14 11:41:33;;;;;;;9.82;6.82;;;;;;;22.55;72.74;100970.56;5062332;28;20554;-86
2021/09/14 11:43:59;;;;;;;9.13;7.55;;;;;;;22.57;70.85;100975.81;5022205;28;20040;-83
2021/09/14 11:46:25;;;;;;;11.77;7.72;;;;;;;22.51;70.30;100972.97;5060797;28;20045;-84
2021/09/14 11:48:54;;;;;;;10.00;7.35;;;;;;;22.62;72.86;100965.81;5042900;28;20041;-85
2021/09/14 11:51:20;;;;;;;9.50;7.20;;;;;;;22.65;71.47;100970.81;5045170;28;20647;-85
2021/09/14 11:53:49;;;;;;;12.55;7.22;;;;;;;22.86;69.96;100977.53;5047988;28;20083;-84
2021/09/14 11:56:16;;;;;;;7.80;6.80;;;;;;;22.89;69.49;100976.22;5064692;28;20094;-84